Time;durP1;ratioP1;P1;durP2;ratioP2;P2;SDS_P1;SDS_P2;PMS_P1;PMS_P2;Temp;Humidity;BMP_temperature;BMP_pressure;BME280_temperature;BME280_humidity;BME280_pressure;Samples;Min_cycle;Max_cycle;Signal;HPM_P1;HPM_P2
2023/10/18 00:01:57;;;;;;;0.03;0.03;;;;;;;-144.99;100.00;67352.69;5056339;28;20183;-86
2023/10/18 00:04:23;;;;;;;0.00;0.00;;;;;;;-144.99;100.00;67352.69;5057270;28;20191;-87
2023/10/18 00:06:49;;;;;;;0.00;0.00;;;;;;;-144.99;100.00;67352.69;5057563;28;20231;-87
2023/10/18 00:12:00;;;;;;;0.00;0.00;;;;;;;-144.99;100.00;67352.69;5058194;28;20209;-88
2023/10/18 00:14:26;;;;;;;0.00;0.00;;;;;;;-144.99;100.00;67352.69;5057906;28;20660;-86
2023/10/18 00:16:51;;;;;;;0.00;0.00;;;;;;;-144.99;100.00;67352.69;5056305;28;20213;-87
2023/10/18 00:19:17;;;;;;;0.00;0.00;;;;;;;-144.99;100.00;67352.69;5056702;28;20688;-86
2023/10/18 00:21:42;;;;;;;0.00;0.00;;;;;;;-144.99;100.00;67352.69;5056768;28;20557;-87
2023/10/18 00:24:09;;;;;;;0.73;0.73;;;;;;;-144.99;100.00;67352.69;5055908;28;20193;-86
2023/10/18 00:26:34;;;;;;;0.00;0.00;;;;;;;-144.99;100.00;67352.69;5055834;28;20181;-87
2023/10/18 00:29:00;;;;;;;0.00;0.00;;;;;;;-144.99;100.00;67352.69;5055592;28;20278;-86
2023/10/18 00:31:27;;;;;;;0.00;0.00;;;;;;;-144.99;100.00;67352.69;5058147;28;20182;-86
2023/10/18 00:33:52;;;;;;;2.83;2.70;;;;;;;-144.99;100.00;67352.69;5055523;28;20179;-86
2023/10/18 00:36:18;;;;;;;0.00;0.00;;;;;;;-144.99;100.00;67352.69;5057095;28;20198;-86
2023/10/18 00:38:44;;;;;;;0.00;0.00;;;;;;;-144.99;100.00;67352.69;5056676;28;20199;-86
2023/10/18 00:41:14;;;;;;;0.00;0.00;;;;;;;-144.99;100.00;67352.69;5056961;28;20183;-86
2023/10/18 00:43:44;;;;;;;0.00;0.00;;;;;;;-144.99;100.00;67352.69;5057341;28;20477;-85
2023/10/18 00:46:10;;;;;;;0.00;0.00;;;;;;;-144.99;100.00;67352.69;5056870;28;20300;-85
2023/10/18 00:48:36;;;;;;;0.00;0.00;;;;;;;-144.99;100.00;67352.69;5055515;28;20589;-84
2023/10/18 00:51:02;;;;;;;0.00;0.00;;;;;;;-144.99;100.00;67352.69;5055055;28;20175;-85
2023/10/18 00:53:31;;;;;;;0.00;0.00;;;;;;;-144.99;100.00;67352.69;5054914;28;20206;-84
2023/10/18 00:55:57;;;;;;;0.00;0.00;;;;;;;-144.99;100.00;67352.69;5054598;28;20182;-86
2023/10/18 00:58:30;;;;;;;0.00;0.00;;;;;;;-144.99;100.00;67352.69;5058758;28;20203;-87
2023/10/18 01:00:56;;;;;;;0.00;0.00;;;;;;;-144.99;100.00;67352.69;5059511;28;20179;-86
2023/10/18 01:03:29;;;;;;;0.00;0.00;;;;;;;-144.99;100.00;67352.69;5055451;28;20254;-86
2023/10/18 01:06:04;;;;;;;0.00;0.00;;;;;;;-144.99;100.00;67352.69;5038100;28;20661;-84
2023/10/18 01:08:30;;;;;;;0.00;0.00;;;;;;;-144.99;100.00;67352.69;5053179;28;20290;-85
2023/10/18 01:11:04;;;;;;;0.00;0.00;;;;;;;-144.99;100.00;67352.69;5053079;28;20278;-87
2023/10/18 01:13:31;;;;;;;0.27;0.20;;;;;;;-144.99;100.00;67352.69;5053045;28;20186;-86
2023/10/18 01:15:56;;;;;;;0.00;0.00;;;;;;;-144.99;100.00;67352.69;5052976;28;20192;-86
2023/10/18 01:18:22;;;;;;;0.00;0.00;;;;;;;-144.99;100.00;67352.69;5053258;28;20290;-87
2023/10/18 01:20:48;;;;;;;0.00;0.00;;;;;;;-144.99;100.00;67352.69;5053921;28;20187;-86
2023/10/18 01:23:13;;;;;;;0.00;0.00;;;;;;;-144.99;100.00;67352.69;5053937;28;20874;-86
2023/10/18 01:25:39;;;;;;;0.17;0.17;;;;;;;-144.99;100.00;67352.69;5055365;28;20553;-86
2023/10/18 01:28:05;;;;;;;0.00;0.00;;;;;;;-144.99;100.00;67352.69;5052136;28;20190;-86
2023/10/18 01:30:31;;;;;;;0.00;0.00;;;;;;;-144.99;100.00;67352.69;5052158;28;20206;-86
2023/10/18 01:32:57;;;;;;;0.00;0.00;;;;;;;-144.99;100.00;67352.69;5050489;28;20195;-86
2023/10/18 01:35:22;;;;;;;0.00;0.00;;;;;;;-144.99;100.00;67352.69;5051013;28;20206;-86
2023/10/18 01:37:49;;;;;;;0.00;0.00;;;;;;;-144.99;100.00;67352.69;5051035;28;20186;-86
2023/10/18 01:40:21;;;;;;;0.00;0.00;;;;;;;-144.99;100.00;67352.69;5056012;28;20695;-86
2023/10/18 01:42:57;;;;;;;0.00;0.00;;;;;;;-144.99;100.00;67352.69;5054841;28;20563;-86
2023/10/18 01:45:26;;;;;;;0.00;0.00;;;;;;;-144.99;100.00;67352.69;5049704;28;20232;-87
2023/10/18 01:47:51;;;;;;;0.37;0.37;;;;;;;-144.99;100.00;67352.69;5058272;28;20637;-86
2023/10/18 01:50:18;;;;;;;0.10;0.10;;;;;;;-144.99;100.00;67352.69;5057567;28;20209;-87
2023/10/18 01:52:46;;;;;;;0.00;0.00;;;;;;;-144.99;100.00;67352.69;5054711;28;20260;-86
2023/10/18 01:55:12;;;;;;;0.00;0.00;;;;;;;-144.99;100.00;67352.69;5053988;28;20183;-86
2023/10/18 01:57:43;;;;;;;0.00;0.00;;;;;;;-144.99;100.00;67352.69;5052428;28;20637;-86
2023/10/18 02:00:25;;;;;;;0.00;0.00;;;;;;;-144.99;100.00;67352.69;5054841;28;20203;-86
2023/10/18 02:02:50;;;;;;;2.43;1.60;;;;;;;-144.99;100.00;67352.69;5054449;28;20202;-86
2023/10/18 02:05:16;;;;;;;0.30;0.30;;;;;;;-144.99;100.00;67352.69;5057533;28;20198;-85
2023/10/18 02:07:46;;;;;;;0.00;0.00;;;;;;;-144.99;100.00;67352.69;5059006;28;21568;-86
2023/10/18 02:10:12;;;;;;;0.00;0.00;;;;;;;-144.99;100.00;67352.69;5060765;28;20203;-87
2023/10/18 02:12:38;;;;;;;0.00;0.00;;;;;;;-144.99;100.00;67352.69;5059286;28;20183;-86
2023/10/18 02:15:06;;;;;;;0.33;0.33;;;;;;;-144.99;100.00;67352.69;5059577;28;20175;-88
2023/10/18 02:17:32;;;;;;;0.00;0.00;;;;;;;-144.99;100.00;67352.69;5062204;28;20179;-87
2023/10/18 02:20:00;;;;;;;0.00;0.00;;;;;;;-144.99;100.00;67352.69;5062151;28;20277;-88
2023/10/18 02:22:27;;;;;;;0.10;0.10;;;;;;;-144.99;100.00;67352.69;5059826;28;20214;-87
2023/10/18 02:24:53;;;;;;;0.10;0.10;;;;;;;-144.99;100.00;67352.69;5060632;28;20183;-87
2023/10/18 02:27:19;;;;;;;0.00;0.00;;;;;;;-144.99;100.00;67352.69;5062342;28;20186;-86
2023/10/18 02:29:46;;;;;;;0.00;0.00;;;;;;;-144.99;100.00;67352.69;5062240;28;20585;-87
2023/10/18 02:32:31;;;;;;;0.00;0.00;;;;;;;-144.99;100.00;67352.69;5061265;28;20183;-85
2023/10/18 02:34:58;;;;;;;0.00;0.00;;;;;;;-144.99;100.00;67352.69;5061173;28;20183;-87
2023/10/18 02:37:27;;;;;;;0.97;0.97;;;;;;;-144.99;100.00;67352.69;5060941;28;20182;-87
2023/10/18 02:39:59;;;;;;;0.00;0.00;;;;;;;-144.99;100.00;67352.69;5061151;28;20210;-87
2023/10/18 02:42:24;;;;;;;0.00;0.00;;;;;;;-144.99;100.00;67352.69;5055389;28;20260;-87
2023/10/18 02:44:50;;;;;;;0.73;0.73;;;;;;;-144.99;100.00;67352.69;5061751;28;20410;-86
2023/10/18 02:47:22;;;;;;;0.00;0.00;;;;;;;-144.99;100.00;67352.69;5061078;28;20225;-87
2023/10/18 02:49:51;;;;;;;0.00;0.00;;;;;;;-144.99;100.00;67352.69;5062085;28;20559;-87
2023/10/18 02:52:16;;;;;;;0.00;0.00;;;;;;;-144.99;100.00;67352.69;5063934;28;20179;-87
2023/10/18 02:54:42;;;;;;;0.00;0.00;;;;;;;-144.99;100.00;67352.69;5062111;28;20235;-88
2023/10/18 02:57:07;;;;;;;0.10;0.10;;;;;;;-144.99;100.00;67352.69;5063559;28;20250;-87
2023/10/18 02:59:35;;;;;;;0.00;0.00;;;;;;;-144.99;100.00;67352.69;5061963;28;20195;-87
2023/10/18 03:02:09;;;;;;;0.00;0.00;;;;;;;-144.99;100.00;67352.69;5063764;28;20176;-87
2023/10/18 03:04:35;;;;;;;0.00;0.00;;;;;;;-144.99;100.00;67352.69;5062120;28;20181;-87
2023/10/18 03:07:02;;;;;;;3.03;2.83;;;;;;;-144.99;100.00;67352.69;5062158;28;20179;-86
2023/10/18 03:09:27;;;;;;;0.00;0.00;;;;;;;-144.99;100.00;67352.69;5063696;28;20203;-87
2023/10/18 03:11:57;;;;;;;0.00;0.00;;;;;;;-144.99;100.00;67352.69;5062173;28;20187;-87
2023/10/18 03:17:28;;;;;;;0.00;0.00;;;;;;;-144.99;100.00;67352.69;5061648;28;20369;-87
2023/10/18 03:19:55;;;;;;;0.10;0.10;;;;;;;-144.99;100.00;67352.69;5062507;28;20207;-88
2023/10/18 03:22:22;;;;;;;0.20;0.20;;;;;;;-144.99;100.00;67352.69;5071685;28;20258;-87
2023/10/18 03:24:55;;;;;;;0.00;0.00;;;;;;;-144.99;100.00;67352.69;5063230;28;20211;-87
2023/10/18 03:27:25;;;;;;;0.00;0.00;;;;;;;-144.99;100.00;67352.69;5055117;28;20212;-87
2023/10/18 03:29:57;;;;;;;0.00;0.00;;;;;;;-144.99;100.00;67352.69;5063085;28;20214;-88
2023/10/18 03:32:24;;;;;;;0.00;0.00;;;;;;;-144.99;100.00;67352.69;5065252;28;20275;-89
2023/10/18 03:34:52;;;;;;;0.00;0.00;;;;;;;-144.99;100.00;67352.69;5064392;28;20617;-88
2023/10/18 03:37:21;;;;;;;0.00;0.00;;;;;;;-144.99;100.00;67352.69;5064536;28;20183;-88
2023/10/18 03:39:52;;;;;;;0.00;0.00;;;;;;;-144.99;100.00;67352.69;5064663;28;20199;-87
2023/10/18 03:42:30;;;;;;;0.00;0.00;;;;;;;-144.99;100.00;67352.69;5065630;28;20175;-87
2023/10/18 03:45:13;;;;;;;0.00;0.00;;;;;;;-144.99;100.00;67352.69;5066305;28;20182;-88
2023/10/18 03:47:39;;;;;;;0.73;0.73;;;;;;;-144.99;100.00;67352.69;5065613;28;20199;-88
2023/10/18 03:50:14;;;;;;;0.73;0.73;;;;;;;-144.99;100.00;67352.69;5066403;28;20210;-88
2023/10/18 03:52:40;;;;;;;0.00;0.00;;;;;;;-144.99;100.00;67352.69;5068959;28;20175;-88
2023/10/18 03:55:18;;;;;;;0.00;0.00;;;;;;;-144.99;100.00;67352.69;5077710;28;20171;-88
2023/10/18 03:57:44;;;;;;;0.00;0.00;;;;;;;-144.99;100.00;67352.69;5077863;28;20163;-89
2023/10/18 04:02:49;;;;;;;0.10;0.10;;;;;;;-144.99;100.00;67352.69;5076753;28;20166;-87
2023/10/18 04:05:30;;;;;;;0.00;0.00;;;;;;;-144.99;100.00;67352.69;5059268;28;20191;-86
2023/10/18 04:07:56;;;;;;;0.00;0.00;;;;;;;-144.99;100.00;67352.69;5052310;28;20245;-86
2023/10/18 04:10:24;;;;;;;0.00;0.00;;;;;;;-144.99;100.00;67352.69;5052072;28;20638;-86
2023/10/18 04:12:50;;;;;;;0.13;0.13;;;;;;;-144.99;100.00;67352.69;5053065;28;20270;-86
2023/10/18 04:15:29;;;;;;;0.10;0.10;;;;;;;-144.99;100.00;67352.69;5053519;28;20629;-86
2023/10/18 04:20:52;;;;;;;0.43;0.43;;;;;;;-144.99;100.00;67352.69;5047672;28;20620;-85
2023/10/18 04:23:20;;;;;;;0.00;0.00;;;;;;;-144.99;100.00;67352.69;5051614;28;20215;-85
2023/10/18 04:26:00;;;;;;;0.00;0.00;;;;;;;-144.99;100.00;67352.69;5053234;28;20201;-85
2023/10/18 04:28:26;;;;;;;0.00;0.00;;;;;;;-144.99;100.00;67352.69;5044100;28;20218;-85
2023/10/18 04:31:00;;;;;;;0.00;0.00;;;;;;;-144.99;100.00;67352.69;5051842;28;20677;-86
2023/10/18 04:33:52;;;;;;;3.83;0.63;;;;;;;-144.99;100.00;67352.69;5043947;28;20232;-86
2023/10/18 04:36:18;;;;;;;0.73;0.73;;;;;;;-144.99;100.00;67352.69;5052282;28;20202;-86
2023/10/18 04:38:47;;;;;;;0.00;0.00;;;;;;;-144.99;100.00;67352.69;5051280;28;20207;-87
2023/10/18 04:44:05;;;;;;;0.20;0.20;;;;;;;-144.99;100.00;67352.69;5052877;28;20193;-83
2023/10/18 04:46:31;;;;;;;0.73;0.73;;;;;;;-144.99;100.00;67352.69;5051575;28;20301;-86
2023/10/18 04:51:27;;;;;;;0.10;0.10;;;;;;;-144.99;100.00;67352.69;5052371;28;20667;-87
2023/10/18 04:54:01;;;;;;;0.00;0.00;;;;;;;-144.99;100.00;67352.69;5051283;28;20179;-86
2023/10/18 04:56:34;;;;;;;0.10;0.10;;;;;;;-144.99;100.00;67352.69;5051420;28;20191;-86
2023/10/18 04:59:11;;;;;;;0.00;0.00;;;;;;;-144.99;100.00;67352.69;5051796;28;20210;-87
2023/10/18 05:04:32;;;;;;;0.00;0.00;;;;;;;-144.99;100.00;67352.69;5052712;28;20190;-86
2023/10/18 05:07:14;;;;;;;0.00;0.00;;;;;;;-144.99;100.00;67352.69;5052379;28;20586;-87
2023/10/18 05:09:43;;;;;;;0.00;0.00;;;;;;;-144.99;100.00;67352.69;5051144;28;20203;-86
2023/10/18 05:12:27;;;;;;;0.00;0.00;;;;;;;-144.99;100.00;67352.69;5050804;28;20215;-86
2023/10/18 05:15:08;;;;;;;0.00;0.00;;;;;;;-144.99;100.00;67352.69;5051076;28;20191;-86
2023/10/18 05:17:39;;;;;;;0.00;0.00;;;;;;;-144.99;100.00;67352.69;5051436;28;20186;-86
2023/10/18 05:22:52;;;;;;;0.40;0.33;;;;;;;-144.99;100.00;67352.69;5052317;28;20187;-86
2023/10/18 05:28:07;;;;;;;0.00;0.00;;;;;;;-144.99;100.00;67352.69;5052571;28;20179;-86
2023/10/18 05:36:29;;;;;;;0.27;0.27;;;;;;;-144.99;100.00;67352.69;5069950;28;20549;-79
2023/10/18 05:38:55;;;;;;;0.00;0.00;;;;;;;-144.99;100.00;67352.69;5068144;28;20622;-78
2023/10/18 05:43:58;;;;;;;0.00;0.00;;;;;;;-144.99;100.00;67352.69;5066716;28;20293;-78
2023/10/18 05:46:27;;;;;;;0.17;0.17;;;;;;;-144.99;100.00;67352.69;5056740;28;20183;-79
2023/10/18 05:48:57;;;;;;;0.00;0.00;;;;;;;-144.99;100.00;67352.69;5050241;28;20712;-78
2023/10/18 05:51:26;;;;;;;0.47;0.47;;;;;;;-144.99;100.00;67352.69;5063617;28;20214;-78
2023/10/18 05:54:05;;;;;;;2.70;0.50;;;;;;;-144.99;100.00;67352.69;5071173;28;20203;-78
2023/10/18 05:56:31;;;;;;;0.27;0.27;;;;;;;-144.99;100.00;67352.69;5070214;28;20193;-78
2023/10/18 05:59:22;;;;;;;0.00;0.00;;;;;;;-144.99;100.00;67352.69;5070183;28;20601;-78
2023/10/18 06:01:47;;;;;;;0.00;0.00;;;;;;;-144.99;100.00;67352.69;5071486;28;20684;-79
2023/10/18 06:04:14;;;;;;;0.00;0.00;;;;;;;-144.99;100.00;67352.69;5069910;28;20233;-78
2023/10/18 06:06:40;;;;;;;0.20;0.10;;;;;;;-144.99;100.00;67352.69;5070365;28;20190;-79
2023/10/18 06:09:10;;;;;;;0.57;0.57;;;;;;;-144.99;100.00;67352.69;5070272;28;20202;-79
2023/10/18 06:11:39;;;;;;;0.00;0.00;;;;;;;-144.99;100.00;67352.69;5071522;28;20193;-79
2023/10/18 06:14:05;;;;;;;0.00;0.00;;;;;;;-144.99;100.00;67352.69;5069891;28;20210;-79
2023/10/18 06:16:34;;;;;;;0.10;0.10;;;;;;;-144.99;100.00;67352.69;5070255;28;20187;-79
2023/10/18 06:19:03;;;;;;;0.00;0.00;;;;;;;-144.99;100.00;67352.69;5071483;28;20185;-78
2023/10/18 06:21:29;;;;;;;0.00;0.00;;;;;;;-144.99;100.00;67352.69;5071521;28;20269;-79
2023/10/18 06:23:54;;;;;;;0.27;0.27;;;;;;;-144.99;100.00;67352.69;5071357;28;20686;-79
2023/10/18 06:26:30;;;;;;;0.73;0.73;;;;;;;-144.99;100.00;67352.69;5075123;28;20780;-80
2023/10/18 06:29:02;;;;;;;0.93;0.93;;;;;;;-144.99;100.00;67352.69;5074862;28;20239;-79
2023/10/18 06:31:31;;;;;;;0.00;0.00;;;;;;;-144.99;100.00;67352.69;5074998;28;20232;-78
2023/10/18 06:33:59;;;;;;;0.10;0.10;;;;;;;-144.99;100.00;67352.69;5074205;28;20241;-79
2023/10/18 06:36:26;;;;;;;0.73;0.73;;;;;;;-144.99;100.00;67352.69;5074896;28;20187;-79
2023/10/18 06:38:52;;;;;;;0.10;0.10;;;;;;;-144.99;100.00;67352.69;5074959;28;20178;-79
2023/10/18 06:41:21;;;;;;;0.00;0.00;;;;;;;-144.99;100.00;67352.69;5074775;28;20210;-79
2023/10/18 06:43:50;;;;;;;0.00;0.00;;;;;;;-144.99;100.00;67352.69;5073411;28;20574;-79
2023/10/18 06:46:26;;;;;;;0.00;0.00;;;;;;;-144.99;100.00;67352.69;5074644;28;20821;-80
2023/10/18 06:48:54;;;;;;;7.33;3.70;;;;;;;-144.99;100.00;67352.69;5073381;28;20296;-79
2023/10/18 06:51:30;;;;;;;1.90;1.80;;;;;;;-144.99;100.00;67352.69;5074580;28;20741;-80
2023/10/18 06:53:57;;;;;;;0.97;0.97;;;;;;;-144.99;100.00;67352.69;5074494;28;20197;-78
2023/10/18 06:56:22;;;;;;;3.73;0.80;;;;;;;-144.99;100.00;67352.69;5054674;28;20321;-79
2023/10/18 06:58:48;;;;;;;0.00;0.00;;;;;;;-144.99;100.00;67352.69;5054530;28;20621;-79
2023/10/18 07:01:20;;;;;;;0.00;0.00;;;;;;;-144.99;100.00;67352.69;5054575;28;20179;-80
2023/10/18 07:03:48;;;;;;;0.37;0.37;;;;;;;-144.99;100.00;67352.69;5054487;28;20292;-78
2023/10/18 07:06:18;;;;;;;1.23;1.23;;;;;;;-144.99;100.00;67352.69;5053147;28;20654;-80
2023/10/18 07:08:45;;;;;;;1.07;1.07;;;;;;;-144.99;100.00;67352.69;5053675;28;20179;-79
2023/10/18 07:11:16;;;;;;;0.30;0.30;;;;;;;-144.99;100.00;67352.69;5054504;28;20653;-79
2023/10/18 07:13:46;;;;;;;1.07;1.07;;;;;;;-144.99;100.00;67352.69;5052891;28;20203;-79
2023/10/18 07:16:15;;;;;;;0.37;0.37;;;;;;;-144.99;100.00;67352.69;5054741;28;20189;-79
2023/10/18 07:18:42;;;;;;;0.40;0.40;;;;;;;-144.99;100.00;67352.69;5053159;28;20676;-79
2023/10/18 07:21:09;;;;;;;0.30;0.30;;;;;;;-144.99;100.00;67352.69;5054221;28;20524;-82
2023/10/18 07:23:36;;;;;;;0.43;0.43;;;;;;;-144.99;100.00;67352.69;5052789;28;20260;-81
2023/10/18 07:26:07;;;;;;;1.17;0.83;;;;;;;-144.99;100.00;67352.69;5052988;28;20183;-79
2023/10/18 07:28:35;;;;;;;0.93;0.77;;;;;;;-144.99;100.00;67352.69;5068217;28;20233;-79
2023/10/18 07:31:10;;;;;;;0.00;0.00;;;;;;;-144.99;100.00;67352.69;5073874;28;20613;-79
2023/10/18 07:33:42;;;;;;;0.73;0.73;;;;;;;-144.99;100.00;67352.69;5073433;28;20252;-79
2023/10/18 07:36:09;;;;;;;0.00;0.00;;;;;;;-144.99;100.00;67352.69;5069327;28;20183;-78
2023/10/18 07:38:38;;;;;;;0.00;0.00;;;;;;;-144.99;100.00;67352.69;5073000;28;20736;-79
2023/10/18 07:41:04;;;;;;;0.20;0.20;;;;;;;-144.99;100.00;67352.69;5077980;28;20178;-79
2023/10/18 07:43:32;;;;;;;1.67;1.67;;;;;;;-144.99;100.00;67352.69;5073388;28;20205;-79
2023/10/18 07:45:58;;;;;;;0.00;0.00;;;;;;;-144.99;100.00;67352.69;5072007;28;20171;-79
2023/10/18 07:48:24;;;;;;;1.17;1.07;;;;;;;-144.99;100.00;67352.69;5055028;28;20187;-80
2023/10/18 07:50:50;;;;;;;0.87;0.73;;;;;;;-144.99;100.00;67352.69;5055545;28;20203;-79
2023/10/18 07:53:16;;;;;;;0.77;0.77;;;;;;;-144.99;100.00;67352.69;5055071;28;20198;-80
2023/10/18 07:55:47;;;;;;;1.43;1.23;;;;;;;-144.99;100.00;67352.69;5056915;28;20649;-80
2023/10/18 07:58:22;;;;;;;0.07;0.07;;;;;;;-144.99;100.00;67352.69;5056763;28;20183;-80
2023/10/18 08:03:29;;;;;;;1.57;1.50;;;;;;;-144.99;100.00;67352.69;5068526;28;20190;-80
2023/10/18 08:05:56;;;;;;;0.93;0.93;;;;;;;-144.99;100.00;67352.69;5076749;28;20178;-80
2023/10/18 08:08:25;;;;;;;0.10;0.10;;;;;;;-144.99;100.00;67352.69;5073919;28;20252;-81
2023/10/18 08:10:54;;;;;;;1.00;1.00;;;;;;;-144.99;100.00;67352.69;5073645;28;20293;-79
2023/10/18 08:13:26;;;;;;;2.00;1.60;;;;;;;-144.99;100.00;67352.69;5075300;28;20197;-81
2023/10/18 08:15:56;;;;;;;0.37;0.37;;;;;;;-144.99;100.00;67352.69;5074359;28;20182;-81
2023/10/18 08:18:39;;;;;;;2.53;2.43;;;;;;;-144.99;100.00;67352.69;5075359;28;20190;-80
2023/10/18 08:21:08;;;;;;;1.47;1.37;;;;;;;-144.99;100.00;67352.69;5075335;28;20177;-80
2023/10/18 08:23:37;;;;;;;1.37;1.27;;;;;;;-144.99;100.00;67352.69;5074524;28;20201;-80
2023/10/18 08:26:03;;;;;;;2.80;2.60;;;;;;;-144.99;100.00;67352.69;5073186;28;20285;-80
2023/10/18 08:28:45;;;;;;;1.50;1.40;;;;;;;-144.99;100.00;67352.69;5073234;28;20635;-81
2023/10/18 08:31:26;;;;;;;0.93;0.87;;;;;;;-144.99;100.00;67352.69;5073731;28;20209;-80
2023/10/18 08:33:54;;;;;;;1.13;0.83;;;;;;;-144.99;100.00;67352.69;5065569;28;20206;-80
2023/10/18 08:36:29;;;;;;;1.90;1.50;;;;;;;-144.99;100.00;67352.69;5070682;28;20229;-80
2023/10/18 08:39:03;;;;;;;0.60;0.60;;;;;;;-144.99;100.00;67352.69;5063473;28;20186;-79
2023/10/18 08:41:33;;;;;;;0.20;0.20;;;;;;;-144.99;100.00;67352.69;5063137;28;20182;-80
2023/10/18 08:44:16;;;;;;;0.30;0.30;;;;;;;-144.99;100.00;67352.69;5061358;28;20290;-80
2023/10/18 08:47:11;;;;;;;3.07;2.87;;;;;;;-144.99;100.00;67352.69;5062315;28;20207;-81
2023/10/18 08:49:50;;;;;;;1.00;1.00;;;;;;;-144.99;100.00;67352.69;5066632;28;20202;-81
2023/10/18 08:52:20;;;;;;;3.07;2.37;;;;;;;-144.99;100.00;67352.69;5065936;28;21150;-80
2023/10/18 08:54:46;;;;;;;0.53;0.53;;;;;;;-144.99;100.00;67352.69;5073436;28;20577;-80
2023/10/18 08:57:15;;;;;;;0.00;0.00;;;;;;;-144.99;100.00;67352.69;5073929;28;20732;-80
2023/10/18 08:59:50;;;;;;;1.80;1.70;;;;;;;-144.99;100.00;67352.69;5072615;28;20171;-80
2023/10/18 09:02:23;;;;;;;3.23;1.33;;;;;;;-144.99;100.00;67352.69;5072648;28;20190;-80
2023/10/18 09:04:59;;;;;;;0.60;0.60;;;;;;;-144.99;100.00;67352.69;5066432;28;20198;-80
2023/10/18 09:07:44;;;;;;;2.37;2.17;;;;;;;-144.99;100.00;67352.69;5055899;28;20629;-79
2023/10/18 09:10:13;;;;;;;2.53;2.43;;;;;;;-144.99;100.00;67352.69;5050929;28;20207;-83
2023/10/18 09:18:03;;;;;;;4.27;1.70;;;;;;;-144.99;100.00;67352.69;5051917;28;20205;-80
2023/10/18 09:20:29;;;;;;;6.73;6.13;;;;;;;-144.99;100.00;67352.69;5064509;28;20178;-80
2023/10/18 09:23:01;;;;;;;0.57;0.57;;;;;;;-144.99;100.00;67352.69;5062241;28;20194;-81
2023/10/18 09:25:47;;;;;;;1.20;1.20;;;;;;;-144.99;100.00;67352.69;5064492;28;20206;-80
2023/10/18 09:28:19;;;;;;;1.73;1.60;;;;;;;-144.99;100.00;67352.69;5070274;28;20178;-80
2023/10/18 09:30:45;;;;;;;2.37;1.70;;;;;;;-144.99;100.00;67352.69;5071858;28;20259;-80
2023/10/18 09:33:13;;;;;;;5.67;5.27;;;;;;;-144.99;100.00;67352.69;5052535;28;20191;-79
2023/10/18 09:35:39;;;;;;;12.33;6.77;;;;;;;-144.99;100.00;67352.69;5057869;28;20629;-83
2023/10/18 09:38:08;;;;;;;1.20;0.97;;;;;;;-144.99;100.00;67352.69;5071730;28;20644;-82
2023/10/18 09:40:37;;;;;;;0.27;0.27;;;;;;;-144.99;100.00;67352.69;5070487;28;20178;-83
2023/10/18 09:43:02;;;;;;;2.73;2.23;;;;;;;-144.99;100.00;67352.69;5071148;28;20187;-79
2023/10/18 09:45:32;;;;;;;1.83;1.73;;;;;;;-144.99;100.00;67352.69;5071932;28;20208;-85
2023/10/18 09:47:59;;;;;;;2.60;2.43;;;;;;;-144.99;100.00;67352.69;5070182;28;20209;-80
2023/10/18 09:50:31;;;;;;;2.17;1.90;;;;;;;-144.99;100.00;67352.69;5071413;28;20198;-79
2023/10/18 09:52:56;;;;;;;2.10;2.00;;;;;;;-144.99;100.00;67352.69;5070223;28;20288;-79
2023/10/18 09:55:26;;;;;;;1.53;1.43;;;;;;;-144.99;100.00;67352.69;5067160;28;20364;-79
2023/10/18 09:58:05;;;;;;;4.13;3.23;;;;;;;-144.99;100.00;67352.69;5070351;28;20526;-79
2023/10/18 10:00:43;;;;;;;6.60;2.40;;;;;;;-144.99;100.00;67352.69;5068011;28;20200;-80
2023/10/18 10:03:10;;;;;;;26.57;2.27;;;;;;;-144.99;100.00;67352.69;5074828;28;20188;-80
2023/10/18 10:05:43;;;;;;;2.90;2.70;;;;;;;-144.99;100.00;67352.69;5073928;28;20186;-80
2023/10/18 10:08:09;;;;;;;3.80;3.53;;;;;;;-144.99;100.00;67352.69;5068181;28;20187;-81
2023/10/18 10:10:45;;;;;;;2.40;1.63;;;;;;;-144.99;100.00;67352.69;5055529;28;20281;-81
2023/10/18 10:13:27;;;;;;;3.63;3.33;;;;;;;-144.99;100.00;67352.69;5056125;28;20186;-81
2023/10/18 10:16:02;;;;;;;5.17;2.00;;;;;;;-144.99;100.00;67352.69;5055021;28;20282;-81
2023/10/18 10:18:32;;;;;;;3.33;3.03;;;;;;;-144.99;100.00;67352.69;5067507;28;20235;-79
2023/10/18 10:21:01;;;;;;;2.20;2.07;;;;;;;-144.99;100.00;67352.69;5072556;28;20591;-81
2023/10/18 10:23:26;;;;;;;9.37;3.27;;;;;;;-144.99;100.00;67352.69;5067066;28;20550;-80
2023/10/18 10:26:11;;;;;;;1.43;1.33;;;;;;;-144.99;100.00;67352.69;5055946;28;20183;-80
2023/10/18 10:31:56;;;;;;;5.57;5.00;;;;;;;-144.99;100.00;67352.69;5075644;28;20198;-79
2023/10/18 10:34:26;;;;;;;0.57;0.57;;;;;;;-144.99;100.00;67352.69;5076260;28;20201;-81
2023/10/18 10:37:11;;;;;;;2.47;2.27;;;;;;;-144.99;100.00;67352.69;5075401;28;20644;-81
2023/10/18 10:39:44;;;;;;;0.90;0.90;;;;;;;-144.99;100.00;67352.69;5075564;28;20522;-81
2023/10/18 10:42:19;;;;;;;2.63;2.43;;;;;;;-144.99;100.00;67352.69;5075067;28;20675;-80
2023/10/18 10:47:44;;;;;;;1.03;0.87;;;;;;;-144.99;100.00;67352.69;5059344;28;20191;-81
2023/10/18 10:50:10;;;;;;;0.40;0.40;;;;;;;-144.99;100.00;67352.69;5063569;28;20206;-81
2023/10/18 10:52:40;;;;;;;4.03;3.67;;;;;;;-144.99;100.00;67352.69;5061690;28;20178;-81
2023/10/18 10:55:21;;;;;;;1.83;1.63;;;;;;;-144.99;100.00;67352.69;5054367;28;20211;-81
2023/10/18 10:57:48;;;;;;;3.43;3.17;;;;;;;-144.99;100.00;67352.69;5055519;28;20201;-80
2023/10/18 11:03:06;;;;;;;2.40;2.30;;;;;;;-144.99;100.00;67352.69;5062784;28;20333;-81
2023/10/18 11:05:36;;;;;;;4.80;4.43;;;;;;;-144.99;100.00;67352.69;5056852;28;20203;-81
2023/10/18 11:08:01;;;;;;;9.63;2.80;;;;;;;-144.99;100.00;67352.69;5054609;28;20233;-80
2023/10/18 11:10:28;;;;;;;2.17;1.30;;;;;;;-144.99;100.00;67352.69;5054910;28;20200;-81
2023/10/18 11:12:54;;;;;;;6.77;6.17;;;;;;;-144.99;100.00;67352.69;5054757;28;20536;-81
2023/10/18 11:15:27;;;;;;;2.83;2.63;;;;;;;-144.99;100.00;67352.69;5055215;28;20252;-80
2023/10/18 11:17:53;;;;;;;2.93;2.73;;;;;;;-144.99;100.00;67352.69;5055538;28;20183;-81
2023/10/18 11:20:29;;;;;;;0.67;0.67;;;;;;;-144.99;100.00;67352.69;5055388;28;20175;-80
2023/10/18 11:22:56;;;;;;;0.80;0.63;;;;;;;-144.99;100.00;67352.69;5056102;28;20179;-83
2023/10/18 11:25:30;;;;;;;2.17;2.07;;;;;;;-144.99;100.00;67352.69;5065225;28;20256;-85
2023/10/18 11:28:10;;;;;;;2.03;1.87;;;;;;;-144.99;100.00;67352.69;5060515;28;20183;-85
2023/10/18 11:30:37;;;;;;;3.20;2.97;;;;;;;-144.99;100.00;67352.69;5076140;22;20304;-80
2023/10/18 11:33:03;;;;;;;4.83;4.33;;;;;;;-144.99;100.00;67352.69;5048916;28;20211;-81
2023/10/18 11:38:09;;;;;;;1.90;1.70;;;;;;;-144.99;100.00;67352.69;5058806;28;20187;-81
2023/10/18 11:40:40;;;;;;;3.23;3.00;;;;;;;-144.99;100.00;67352.69;5058780;28;20175;-80
2023/10/18 11:43:08;;;;;;;2.03;1.87;;;;;;;-144.99;100.00;67352.69;5049021;28;20336;-80
2023/10/18 11:45:36;;;;;;;3.20;1.60;;;;;;;-144.99;100.00;67352.69;5041931;28;20183;-86
2023/10/18 11:48:02;;;;;;;4.13;3.17;;;;;;;-144.99;100.00;67352.69;5055991;28;20183;-81
2023/10/18 11:50:42;;;;;;;2.07;1.83;;;;;;;-144.99;100.00;67352.69;5048429;28;20206;-81
2023/10/18 11:53:09;;;;;;;1.80;1.70;;;;;;;-144.99;100.00;67352.69;5052836;28;20578;-81
2023/10/18 11:55:37;;;;;;;2.10;2.00;;;;;;;-144.99;100.00;67352.69;5057958;28;20275;-80
2023/10/18 11:58:09;;;;;;;9.73;2.70;;;;;;;-144.99;100.00;67352.69;5057280;28;20183;-81
2023/10/18 12:00:38;;;;;;;2.67;2.47;;;;;;;-144.99;100.00;67352.69;5058419;28;20643;-80
2023/10/18 12:03:05;;;;;;;3.47;2.87;;;;;;;-144.99;100.00;67352.69;5057590;28;20227;-80
2023/10/18 12:05:31;;;;;;;7.07;4.33;;;;;;;-144.99;100.00;67352.69;5057812;28;20632;-81
2023/10/18 12:07:57;;;;;;;3.83;3.53;;;;;;;-144.99;100.00;67352.69;5044122;28;20247;-80
2023/10/18 12:10:34;;;;;;;2.83;2.07;;;;;;;-144.99;100.00;67352.69;5048672;28;20241;-80
2023/10/18 12:13:02;;;;;;;3.93;3.63;;;;;;;-144.99;100.00;67352.69;5039072;28;20203;-81
2023/10/18 12:15:30;;;;;;;5.63;4.30;;;;;;;-144.99;100.00;67352.69;5036888;28;20180;-81